createdAt,value
2019-01-13T00:00:33.154Z,7.60
2019-01-13T00:03:01.771Z,7.70
2019-01-13T00:05:30.353Z,7.70
2019-01-13T00:07:58.911Z,7.70
2019-01-13T00:10:27.555Z,7.70
2019-01-13T00:12:56.015Z,7.70
2019-01-13T00:15:24.500Z,7.80
2019-01-13T00:17:52.995Z,7.80
2019-01-13T00:20:21.535Z,7.80
2019-01-13T00:22:50.078Z,7.70
2019-01-13T00:25:18.540Z,7.70
2019-01-13T00:27:47.023Z,7.70
2019-01-13T00:30:19.460Z,7.70
2019-01-13T00:32:48.199Z,7.70
2019-01-13T00:35:16.748Z,7.70
2019-01-13T00:37:45.650Z,7.70
2019-01-13T00:40:16.247Z,7.70
2019-01-13T00:42:44.742Z,7.70
2019-01-13T00:45:14.754Z,7.60
2019-01-13T00:47:43.300Z,7.70
2019-01-13T00:50:14.121Z,7.60
2019-01-13T00:52:43.126Z,7.60
2019-01-13T00:55:13.318Z,7.50
2019-01-13T00:57:41.877Z,7.60
2019-01-13T01:00:13.900Z,7.50
2019-01-13T01:02:42.472Z,7.40
2019-01-13T01:05:11.368Z,7.40
2019-01-13T01:07:39.942Z,7.40
2019-01-13T01:10:11.927Z,7.50
2019-01-13T01:12:40.574Z,7.50
2019-01-13T01:15:11.230Z,7.50
2019-01-13T01:17:39.860Z,7.50
2019-01-13T01:20:14.114Z,7.50
2019-01-13T01:22:42.840Z,7.40
2019-01-13T01:25:14.252Z,7.40
2019-01-13T01:27:42.852Z,7.30
2019-01-13T01:30:19.798Z,7.30
2019-01-13T01:32:48.731Z,7.30
2019-01-13T01:35:17.653Z,7.30
2019-01-13T01:37:46.578Z,7.30
2019-01-13T01:40:21.686Z,7.40
2019-01-13T01:42:50.274Z,7.40
2019-01-13T01:45:20.116Z,7.50
2019-01-13T01:47:48.878Z,7.50
2019-01-13T01:50:17.524Z,7.50
2019-01-13T01:52:46.086Z,7.60
2019-01-13T01:55:18.576Z,7.60
2019-01-13T01:57:47.398Z,7.60
2019-01-13T02:00:18.384Z,7.60
2019-01-13T02:02:47.014Z,7.60
2019-01-13T02:05:15.665Z,7.60
2019-01-13T02:07:44.389Z,7.70
2019-01-13T02:10:15.198Z,7.70
2019-01-13T02:12:43.718Z,7.60
2019-01-13T02:15:15.527Z,7.70
2019-01-13T02:17:44.258Z,7.70
2019-01-13T02:20:15.274Z,7.70
2019-01-13T02:22:43.802Z,7.80
2019-01-13T02:25:14.840Z,7.80
2019-01-13T02:27:43.360Z,7.80
2019-01-13T02:30:17.314Z,7.90
2019-01-13T02:32:45.798Z,7.90
2019-01-13T02:35:14.547Z,7.90
2019-01-13T02:37:43.101Z,7.90
2019-01-13T02:40:14.504Z,7.90
2019-01-13T02:42:43.126Z,7.90
2019-01-13T02:45:14.815Z,7.90
2019-01-13T02:47:43.456Z,7.90
2019-01-13T02:50:13.055Z,7.90
2019-01-13T02:52:41.670Z,7.90
2019-01-13T02:55:10.858Z,7.90
2019-01-13T02:57:39.405Z,7.90
2019-01-13T03:00:17.062Z,7.90
2019-01-13T03:02:45.688Z,7.90
2019-01-13T03:05:14.963Z,7.80
2019-01-13T03:07:43.524Z,7.80
2019-01-13T03:10:15.382Z,7.80
2019-01-13T03:12:44.210Z,7.90
2019-01-13T03:15:19.348Z,7.90
2019-01-13T03:17:45.910Z,8.00
2019-01-13T03:20:15.615Z,7.90
2019-01-13T03:22:44.244Z,7.90
2019-01-13T03:25:17.806Z,7.90
2019-01-13T03:27:46.363Z,8.00
2019-01-13T03:30:17.947Z,7.90
2019-01-13T03:32:46.621Z,8.00
2019-01-13T03:35:15.573Z,8.00
2019-01-13T03:37:44.439Z,8.10
2019-01-13T03:40:16.130Z,8.10
2019-01-13T03:42:44.604Z,8.10
2019-01-13T03:45:13.436Z,8.10
2019-01-13T03:47:41.968Z,8.10
2019-01-13T03:50:15.937Z,8.10
2019-01-13T03:52:52.473Z,8.10
2019-01-13T03:55:16.173Z,8.10
2019-01-13T03:57:44.800Z,8.10
2019-01-13T04:00:19.367Z,8.10
2019-01-13T04:02:47.894Z,8.10
2019-01-13T04:05:16.733Z,8.00
2019-01-13T04:07:45.326Z,8.00
2019-01-13T04:10:16.175Z,8.00
2019-01-13T04:12:44.871Z,8.00
2019-01-13T04:15:16.516Z,8.00
2019-01-13T04:17:45.642Z,8.00
2019-01-13T04:20:14.194Z,8.00
2019-01-13T04:22:42.680Z,7.90
2019-01-13T04:25:11.222Z,8.00
2019-01-13T04:27:39.683Z,8.00
2019-01-13T04:30:11.254Z,8.00
2019-01-13T04:32:39.811Z,8.00
2019-01-13T04:35:08.734Z,8.00
2019-01-13T04:37:37.268Z,8.00
2019-01-13T04:40:10.937Z,8.00
2019-01-13T04:42:39.409Z,8.00
2019-01-13T04:45:10.347Z,8.00
2019-01-13T04:47:38.905Z,8.00
2019-01-13T04:50:10.788Z,8.00
2019-01-13T04:52:39.317Z,8.00
2019-01-13T04:55:08.511Z,8.00
2019-01-13T04:57:36.976Z,8.10
2019-01-13T05:00:17.750Z,8.10
2019-01-13T05:02:46.753Z,8.00
2019-01-13T05:05:15.294Z,8.00
2019-01-13T05:07:45.845Z,8.00
2019-01-13T05:10:17.027Z,8.00
2019-01-13T05:12:46.178Z,8.00
2019-01-13T05:15:14.912Z,7.90
2019-01-13T05:17:43.390Z,7.90
2019-01-13T05:20:16.928Z,7.90
2019-01-13T05:22:45.418Z,7.90
2019-01-13T05:25:14.320Z,8.00
2019-01-13T05:27:42.857Z,8.00
2019-01-13T05:30:16.869Z,8.00
2019-01-13T05:32:45.638Z,7.90
2019-01-13T05:35:14.261Z,7.90
2019-01-13T05:37:42.800Z,7.90
2019-01-13T05:40:14.488Z,7.90
2019-01-13T05:42:43.124Z,7.90
2019-01-13T05:45:14.386Z,8.00
2019-01-13T05:47:43.003Z,8.10
2019-01-13T05:50:13.994Z,8.10
2019-01-13T05:52:43.572Z,8.10
2019-01-13T05:55:12.843Z,8.20
2019-01-13T05:57:41.340Z,8.10
2019-01-13T06:00:18.586Z,8.10
2019-01-13T06:02:47.330Z,8.20
2019-01-13T06:05:15.854Z,8.20
2019-01-13T06:07:44.615Z,8.20
2019-01-13T06:10:15.390Z,8.20
2019-01-13T06:12:44.129Z,8.10
2019-01-13T06:15:15.552Z,8.10
2019-01-13T06:17:44.094Z,8.20
2019-01-13T06:20:15.228Z,8.20
2019-01-13T06:22:43.774Z,8.30
2019-01-13T06:25:12.500Z,8.20
2019-01-13T06:27:41.120Z,8.20
2019-01-13T06:30:13.222Z,8.20
2019-01-13T06:32:41.678Z,8.20
2019-01-13T06:35:10.347Z,8.30
2019-01-13T06:37:38.963Z,8.30
2019-01-13T06:40:11.029Z,8.30
2019-01-13T06:42:39.555Z,8.30
2019-01-13T06:45:11.214Z,8.30
2019-01-13T06:47:39.668Z,8.40
2019-01-13T06:50:11.630Z,8.40
2019-01-13T06:52:40.181Z,8.40
2019-01-13T06:55:09.787Z,8.40
2019-01-13T06:57:38.342Z,8.40
2019-01-13T07:00:24.215Z,8.40
2019-01-13T07:02:52.808Z,8.40
2019-01-13T07:05:21.461Z,8.40
2019-01-13T07:07:51.593Z,8.50
2019-01-13T07:10:20.322Z,8.40
2019-01-13T07:12:48.798Z,8.50
2019-01-13T07:15:19.070Z,8.50
2019-01-13T07:17:47.617Z,8.50
2019-01-13T07:20:17.892Z,8.50
2019-01-13T07:22:46.463Z,8.50
2019-01-13T07:25:14.996Z,8.40
2019-01-13T07:27:43.539Z,8.40
2019-01-13T07:30:14.898Z,8.40
2019-01-13T07:32:43.446Z,8.40
2019-01-13T07:35:12.464Z,8.40
2019-01-13T07:37:40.930Z,8.50
2019-01-13T07:40:17.284Z,8.40
2019-01-13T07:42:45.736Z,8.40
2019-01-13T07:45:16.476Z,8.40
2019-01-13T07:47:45.029Z,8.40
2019-01-13T07:50:15.803Z,8.40
2019-01-13T07:52:44.717Z,8.40
2019-01-13T07:55:16.354Z,8.50
2019-01-13T07:57:45.907Z,8.50
2019-01-13T08:00:23.386Z,8.50
2019-01-13T08:02:51.916Z,8.40
2019-01-13T08:05:20.479Z,8.50
2019-01-13T08:07:49.079Z,8.50
2019-01-13T08:10:17.550Z,8.50
2019-01-13T08:12:46.137Z,8.50
2019-01-13T08:15:17.242Z,8.50
2019-01-13T08:17:45.728Z,8.50
2019-01-13T08:20:17.607Z,8.50
2019-01-13T08:22:46.259Z,8.50
2019-01-13T08:25:14.831Z,8.50
2019-01-13T08:27:43.382Z,8.50
2019-01-13T08:30:17.251Z,8.50
2019-01-13T08:32:46.386Z,8.50
2019-01-13T08:35:15.281Z,8.50
2019-01-13T08:37:43.847Z,8.50
2019-01-13T08:40:17.427Z,8.50
2019-01-13T08:42:45.953Z,8.50
2019-01-13T08:45:15.494Z,8.50
2019-01-13T08:47:44.017Z,8.60
2019-01-13T08:50:20.631Z,8.70
2019-01-13T08:52:49.462Z,8.80
2019-01-13T08:55:18.544Z,8.80
2019-01-13T08:57:47.091Z,8.80
2019-01-13T09:00:18.084Z,8.80
2019-01-13T09:02:46.771Z,8.80
2019-01-13T09:05:15.538Z,8.80
2019-01-13T09:07:44.329Z,8.90
2019-01-13T09:10:15.669Z,8.90
2019-01-13T09:12:47.351Z,9.00
2019-01-13T09:15:21.055Z,9.00
2019-01-13T09:17:49.749Z,9.00
2019-01-13T09:20:23.213Z,9.00
2019-01-13T09:22:51.923Z,9.00
2019-01-13T09:25:20.438Z,9.00
2019-01-13T09:27:48.980Z,9.00
2019-01-13T09:30:25.516Z,9.00
2019-01-13T09:32:54.067Z,9.10
2019-01-13T09:35:23.163Z,9.20
2019-01-13T09:37:53.439Z,9.20
2019-01-13T09:40:27.264Z,9.20
2019-01-13T09:42:56.145Z,9.20
2019-01-13T09:45:25.118Z,9.20
2019-01-13T09:47:53.819Z,9.20
2019-01-13T09:50:25.505Z,9.20
2019-01-13T09:52:54.127Z,9.20
2019-01-13T09:55:24.156Z,9.20
2019-01-13T09:57:52.750Z,9.20
2019-01-13T10:00:32.205Z,9.30
2019-01-13T10:03:00.665Z,9.30
2019-01-13T10:05:29.371Z,9.40
2019-01-13T10:07:57.925Z,9.30
2019-01-13T10:10:26.424Z,9.40
2019-01-13T10:12:55.043Z,9.30
2019-01-13T10:15:25.550Z,9.40
2019-01-13T10:17:54.249Z,9.40
2019-01-13T10:20:23.001Z,9.50
2019-01-13T10:22:51.538Z,9.60
2019-01-13T10:25:20.267Z,9.60
2019-01-13T10:27:48.821Z,9.50
2019-01-13T10:30:28.490Z,9.60
2019-01-13T10:32:57.113Z,9.50
2019-01-13T10:35:26.015Z,9.50
2019-01-13T10:37:54.630Z,9.50
2019-01-13T10:40:25.439Z,9.60
2019-01-13T10:42:54.339Z,9.60
2019-01-13T10:45:22.899Z,9.60
2019-01-13T10:47:51.446Z,9.60
2019-01-13T10:50:25.473Z,9.60
2019-01-13T10:52:57.000Z,9.70
2019-01-13T10:55:26.016Z,9.70
2019-01-13T10:57:55.440Z,9.60
2019-01-13T11:00:27.152Z,9.60
2019-01-13T11:03:02.033Z,9.70
2019-01-13T11:05:25.907Z,9.60
2019-01-13T11:07:54.782Z,9.60
2019-01-13T11:10:23.353Z,9.60
2019-01-13T11:12:51.914Z,9.70
2019-01-13T11:15:22.096Z,9.60
2019-01-13T11:17:50.594Z,9.60
2019-01-13T11:20:32.630Z,9.60
2019-01-13T11:23:01.430Z,9.60
2019-01-13T11:25:31.001Z,9.70
2019-01-13T11:27:59.547Z,9.60
2019-01-13T11:30:28.187Z,9.70
2019-01-13T11:32:56.743Z,9.60
2019-01-13T11:35:25.327Z,9.60
2019-01-13T11:37:53.855Z,9.60
2019-01-13T11:40:24.566Z,9.50
2019-01-13T11:42:53.102Z,9.60
2019-01-13T11:45:21.905Z,9.60
2019-01-13T11:47:51.913Z,9.60
2019-01-13T11:50:22.643Z,9.60
2019-01-13T11:52:51.196Z,9.60
2019-01-13T11:55:20.811Z,9.60
2019-01-13T11:57:49.520Z,9.60
2019-01-13T12:00:29.595Z,9.60
2019-01-13T12:02:58.149Z,9.60
2019-01-13T12:05:26.749Z,9.70
2019-01-13T12:07:55.571Z,9.60
2019-01-13T12:10:24.460Z,9.60
2019-01-13T12:12:53.116Z,9.60
2019-01-13T12:15:25.345Z,9.60
2019-01-13T12:17:53.968Z,9.60
2019-01-13T12:20:24.464Z,9.60
2019-01-13T12:22:53.113Z,9.60
2019-01-13T12:25:23.175Z,9.60
2019-01-13T12:27:52.019Z,9.60
2019-01-13T12:30:25.450Z,9.60
2019-01-13T12:32:54.261Z,9.70
2019-01-13T12:35:25.798Z,9.70
2019-01-13T12:37:56.132Z,9.60
2019-01-13T12:40:26.939Z,9.60
2019-01-13T12:42:55.684Z,9.60
2019-01-13T12:45:24.485Z,9.60
2019-01-13T12:47:53.209Z,9.60
2019-01-13T12:50:25.184Z,9.60
2019-01-13T12:52:53.758Z,9.60
2019-01-13T12:55:23.720Z,9.70
2019-01-13T12:57:52.237Z,9.60
2019-01-13T13:00:21.356Z,9.60
2019-01-13T13:02:51.639Z,9.70
2019-01-13T13:05:20.201Z,9.70
2019-01-13T13:07:49.045Z,9.80
2019-01-13T13:10:28.786Z,9.80
2019-01-13T13:12:57.351Z,9.80
2019-01-13T13:15:25.985Z,9.80
2019-01-13T13:17:54.551Z,9.80
2019-01-13T13:20:23.111Z,9.90
2019-01-13T13:22:51.677Z,10.00
2019-01-13T13:25:20.593Z,9.90
2019-01-13T13:27:49.750Z,9.90
2019-01-13T13:30:25.938Z,9.90
2019-01-13T13:32:55.552Z,9.90
2019-01-13T13:35:24.197Z,10.00
2019-01-13T13:37:52.843Z,10.10
2019-01-13T13:40:26.535Z,10.10
2019-01-13T13:42:55.652Z,10.10
2019-01-13T13:45:24.345Z,10.00
2019-01-13T13:47:52.950Z,10.00
2019-01-13T13:50:26.306Z,9.90
2019-01-13T13:52:55.401Z,9.90
2019-01-13T13:55:24.121Z,9.90
2019-01-13T13:57:54.248Z,9.80
2019-01-13T14:00:27.943Z,9.80
2019-01-13T14:02:56.594Z,9.80
2019-01-13T14:05:25.553Z,9.70
2019-01-13T14:07:54.201Z,9.70
2019-01-13T14:10:31.757Z,9.60
2019-01-13T14:13:00.340Z,9.50
2019-01-13T14:15:28.898Z,9.40
2019-01-13T14:17:57.683Z,9.40
2019-01-13T14:20:26.308Z,9.40
2019-01-13T14:22:54.888Z,9.40
2019-01-13T14:25:23.460Z,9.40
2019-01-13T14:27:52.034Z,9.40
2019-01-13T14:30:27.929Z,9.30
2019-01-13T14:32:57.885Z,9.40
2019-01-13T14:35:27.179Z,9.40
2019-01-13T14:37:55.743Z,9.30
2019-01-13T14:40:25.645Z,9.30
2019-01-13T14:42:54.213Z,9.20
2019-01-13T14:45:24.409Z,9.00
2019-01-13T14:47:55.645Z,8.90
2019-01-13T14:50:27.438Z,8.80
2019-01-13T14:52:56.026Z,8.80
2019-01-13T14:55:24.589Z,8.80
2019-01-13T14:57:53.349Z,8.70
2019-01-13T15:00:27.278Z,8.70
2019-01-13T15:02:55.923Z,8.60
2019-01-13T15:05:24.488Z,8.50
2019-01-13T15:07:54.620Z,8.60
2019-01-13T15:10:24.719Z,8.60
2019-01-13T15:12:54.123Z,8.50
2019-01-13T15:15:23.351Z,8.50
2019-01-13T15:17:52.009Z,8.40
2019-01-13T15:20:22.107Z,8.60
2019-01-13T15:22:51.853Z,8.60
2019-01-13T15:25:26.018Z,8.60
2019-01-13T15:27:55.615Z,8.70
2019-01-13T15:30:33.710Z,8.60
2019-01-13T15:33:02.447Z,8.60
2019-01-13T15:35:31.013Z,8.50
2019-01-13T15:37:59.584Z,8.50
2019-01-13T15:40:28.206Z,8.50
2019-01-13T15:42:57.121Z,8.40
2019-01-13T15:45:25.686Z,8.40
2019-01-13T15:47:54.259Z,8.40
2019-01-13T15:50:25.942Z,8.40
2019-01-13T15:52:55.828Z,8.40
2019-01-13T15:55:24.922Z,8.40
2019-01-13T15:57:53.487Z,8.30
2019-01-13T16:00:24.295Z,8.30
2019-01-13T16:02:53.049Z,8.20
2019-01-13T16:05:21.626Z,8.20
2019-01-13T16:07:50.237Z,8.10
2019-01-13T16:10:26.195Z,8.10
2019-01-13T16:12:55.501Z,8.00
2019-01-13T16:15:24.321Z,7.90
2019-01-13T16:17:53.476Z,7.90
2019-01-13T16:20:24.695Z,7.90
2019-01-13T16:22:54.642Z,8.00
2019-01-13T16:25:23.230Z,8.00
2019-01-13T16:27:51.829Z,8.10
2019-01-13T16:30:25.417Z,8.10
2019-01-13T16:32:55.621Z,8.00
2019-01-13T16:35:24.352Z,8.10
2019-01-13T16:37:53.021Z,8.10
2019-01-13T16:40:23.119Z,8.10
2019-01-13T16:42:51.703Z,8.10
2019-01-13T16:45:20.703Z,8.20
2019-01-13T16:47:49.360Z,8.20
2019-01-13T16:50:20.061Z,8.30
2019-01-13T16:52:51.184Z,8.40
2019-01-13T16:55:20.486Z,8.30
2019-01-13T16:57:49.137Z,8.40
2019-01-13T17:00:23.681Z,8.40
2019-01-13T17:02:52.400Z,8.40
2019-01-13T17:05:22.349Z,8.40
2019-01-13T17:07:50.999Z,8.40
2019-01-13T17:10:22.635Z,8.50
2019-01-13T17:12:51.719Z,8.50
2019-01-13T17:15:26.465Z,8.40
2019-01-13T17:17:55.139Z,8.40
2019-01-13T17:20:24.146Z,8.40
2019-01-13T17:22:53.462Z,8.40
2019-01-13T17:25:24.642Z,8.50
2019-01-13T17:27:53.437Z,8.40
2019-01-13T17:30:24.881Z,8.40
2019-01-13T17:32:53.382Z,8.40
2019-01-13T17:35:22.019Z,8.50
2019-01-13T17:37:51.094Z,8.50
2019-01-13T17:40:21.901Z,8.50
2019-01-13T17:42:50.546Z,8.60
2019-01-13T17:45:22.587Z,8.50
2019-01-13T17:47:51.683Z,8.40
2019-01-13T17:50:22.492Z,8.30
2019-01-13T17:52:52.727Z,8.40
2019-01-13T17:55:23.717Z,8.30
2019-01-13T17:57:52.509Z,8.40
2019-01-13T18:00:24.182Z,8.30
2019-01-13T18:02:55.265Z,8.40
2019-01-13T18:05:26.175Z,8.30
2019-01-13T18:07:54.672Z,8.40
2019-01-13T18:10:24.366Z,8.30
2019-01-13T18:12:52.934Z,8.30
2019-01-13T18:15:21.507Z,8.30
2019-01-13T18:17:52.731Z,8.30
2019-01-13T18:20:22.713Z,8.30
2019-01-13T18:22:51.726Z,8.30
2019-01-13T18:25:20.397Z,8.30
2019-01-13T18:27:48.941Z,8.30
2019-01-13T18:30:20.424Z,8.30
2019-01-13T18:32:48.997Z,8.20
2019-01-13T18:35:19.402Z,8.30
2019-01-13T18:37:48.645Z,8.20
2019-01-13T18:40:21.648Z,8.30
2019-01-13T18:42:50.296Z,8.30
2019-01-13T18:45:19.204Z,8.30
2019-01-13T18:47:47.770Z,8.40
2019-01-13T18:50:22.393Z,8.30
2019-01-13T18:53:01.422Z,8.40
2019-01-13T18:55:33.579Z,8.30
2019-01-13T18:58:05.151Z,8.30
2019-01-13T19:00:33.449Z,8.30
2019-01-13T19:03:02.002Z,8.30
2019-01-13T19:05:30.752Z,8.30
2019-01-13T19:07:59.566Z,8.20
2019-01-13T19:10:42.872Z,8.30
2019-01-13T19:13:17.198Z,8.30
2019-01-13T19:15:48.509Z,8.20
2019-01-13T19:18:18.612Z,8.20
2019-01-13T19:20:47.182Z,8.10
2019-01-13T19:23:16.365Z,8.00
2019-01-13T19:25:46.211Z,8.00
2019-01-13T19:28:17.721Z,8.00
2019-01-13T19:30:47.913Z,8.10
2019-01-13T19:33:16.488Z,8.10
2019-01-13T19:35:46.588Z,8.10
2019-01-13T19:38:15.176Z,8.10
2019-01-13T19:40:45.346Z,8.10
2019-01-13T19:43:15.947Z,8.10
2019-01-13T19:45:51.419Z,8.20
2019-01-13T19:48:17.147Z,8.10
2019-01-13T19:50:48.384Z,8.20
2019-01-13T19:53:20.302Z,8.20
2019-01-13T19:55:50.784Z,8.10
2019-01-13T19:58:23.539Z,8.10
2019-01-13T20:00:53.802Z,8.20
2019-01-13T20:03:22.370Z,8.10
2019-01-13T20:05:51.090Z,8.10
2019-01-13T20:08:19.695Z,8.00
2019-01-13T20:10:48.227Z,7.80
2019-01-13T20:13:17.010Z,7.70
2019-01-13T20:15:45.579Z,7.50
2019-01-13T20:18:14.146Z,7.50
2019-01-13T20:20:42.975Z,7.40
2019-01-13T20:23:30.910Z,7.30
2019-01-13T20:26:01.460Z,7.20
2019-01-13T20:28:30.024Z,7.10
2019-01-13T20:31:01.515Z,7.10
2019-01-13T20:33:30.071Z,7.00
2019-01-13T20:35:59.664Z,7.00
2019-01-13T20:38:28.203Z,6.90
2019-01-13T20:40:57.163Z,6.80
2019-01-13T20:43:26.698Z,6.70
2019-01-13T20:45:55.286Z,6.70
2019-01-13T20:48:23.935Z,6.70
2019-01-13T20:50:54.436Z,6.70
2019-01-13T20:53:22.992Z,6.70
2019-01-13T20:55:58.916Z,6.80
2019-01-13T20:58:27.480Z,6.70
2019-01-13T21:00:57.083Z,6.80
2019-01-13T21:03:25.652Z,6.80
2019-01-13T21:05:54.242Z,6.80
2019-01-13T21:08:24.726Z,6.80
2019-01-13T21:10:53.538Z,6.90
2019-01-13T21:13:22.180Z,6.90
2019-01-13T21:15:50.817Z,6.90
2019-01-13T21:18:19.381Z,6.80
2019-01-13T21:20:47.943Z,6.80
2019-01-13T21:23:18.953Z,6.80
2019-01-13T21:25:49.032Z,6.80
2019-01-13T21:28:20.861Z,6.90
2019-01-13T21:30:50.813Z,6.80
2019-01-13T21:33:20.595Z,6.70
2019-01-13T21:35:49.166Z,6.60
2019-01-13T21:38:17.734Z,6.60
2019-01-13T21:40:46.238Z,6.60
2019-01-13T21:43:14.810Z,6.60
2019-01-13T21:45:43.388Z,6.60
2019-01-13T21:48:13.146Z,6.60
2019-01-13T21:50:42.845Z,6.60
2019-01-13T21:53:11.351Z,6.60
2019-01-13T21:55:39.920Z,6.50
2019-01-13T21:58:09.430Z,6.50
2019-01-13T22:00:38.004Z,6.40
2019-01-13T22:03:07.168Z,6.30
2019-01-13T22:05:40.984Z,6.30
2019-01-13T22:08:06.311Z,6.30
2019-01-13T22:10:34.854Z,6.30
2019-01-13T22:13:03.431Z,6.30
2019-01-13T22:15:31.984Z,6.30
2019-01-13T22:18:00.581Z,6.20
2019-01-13T22:20:29.132Z,6.20
2019-01-13T22:22:57.680Z,6.10
2019-01-13T22:25:26.238Z,6.20
2019-01-13T22:27:54.874Z,6.10
2019-01-13T22:30:23.927Z,6.10
2019-01-13T22:32:52.551Z,6.10
2019-01-13T22:35:21.108Z,6.10
2019-01-13T22:37:55.623Z,6.20
2019-01-13T22:40:20.044Z,6.20
2019-01-13T22:42:48.654Z,6.10
2019-01-13T22:45:21.962Z,6.10
2019-01-13T22:47:50.452Z,6.00
2019-01-13T22:50:19.976Z,6.10
2019-01-13T22:52:48.712Z,6.00
2019-01-13T22:55:17.254Z,6.00
2019-01-13T22:57:45.740Z,6.00
2019-01-13T23:00:42.510Z,5.90
2019-01-13T23:03:11.004Z,5.80
2019-01-13T23:05:39.987Z,5.90
2019-01-13T23:08:08.544Z,5.80
2019-01-13T23:10:37.104Z,5.80
2019-01-13T23:13:05.640Z,5.70
2019-01-13T23:15:34.182Z,5.50
2019-01-13T23:18:02.736Z,5.50
2019-01-13T23:20:31.273Z,5.40
2019-01-13T23:22:59.734Z,5.40
2019-01-13T23:25:28.208Z,5.30
2019-01-13T23:27:56.698Z,5.30
2019-01-13T23:30:25.260Z,5.20
2019-01-13T23:32:53.811Z,5.20
2019-01-13T23:35:22.363Z,5.10
2019-01-13T23:37:50.916Z,5.00
2019-01-13T23:40:19.397Z,5.00
2019-01-13T23:42:47.976Z,4.90
2019-01-13T23:45:16.510Z,4.80
2019-01-13T23:47:45.013Z,4.80
2019-01-13T23:50:13.730Z,4.80
2019-01-13T23:52:42.270Z,4.80
2019-01-13T23:55:11.192Z,4.70
2019-01-13T23:57:39.802Z,4.70
